createdAt,value
2017-12-30T00:00:12.279Z,4.10
2017-12-30T00:02:14.962Z,4.00
2017-12-30T00:04:17.657Z,4.00
2017-12-30T00:06:21.072Z,3.90
2017-12-30T00:08:23.782Z,3.90
2017-12-30T00:10:26.443Z,3.80
2017-12-30T00:12:29.088Z,3.70
2017-12-30T00:14:31.781Z,3.80
2017-12-30T00:16:34.478Z,3.70
2017-12-30T00:18:37.162Z,3.60
2017-12-30T00:20:39.818Z,3.60
2017-12-30T00:22:42.464Z,3.70
2017-12-30T00:24:45.896Z,3.60
2017-12-30T00:26:48.533Z,3.60
2017-12-30T00:28:51.932Z,3.50
2017-12-30T00:30:55.370Z,3.60
2017-12-30T00:32:58.050Z,3.60
2017-12-30T00:35:00.694Z,3.90
2017-12-30T00:37:03.406Z,3.90
2017-12-30T00:39:06.043Z,3.90
2017-12-30T00:41:08.682Z,3.80
2017-12-30T00:43:11.362Z,3.70
2017-12-30T00:45:14.765Z,3.60
2017-12-30T00:47:18.177Z,3.50
2017-12-30T00:49:20.864Z,3.50
2017-12-30T00:51:23.539Z,3.50
2017-12-30T00:53:26.189Z,3.40
2017-12-30T00:55:29.633Z,3.50
2017-12-30T00:57:32.287Z,3.50
2017-12-30T00:59:34.956Z,3.60
2017-12-30T01:01:37.642Z,3.50
2017-12-30T01:03:40.288Z,3.60
2017-12-30T01:05:43.724Z,3.60
2017-12-30T01:07:46.390Z,3.50
2017-12-30T01:09:49.057Z,3.40
2017-12-30T01:11:51.760Z,3.30
2017-12-30T01:13:54.407Z,3.30
2017-12-30T01:15:57.070Z,3.30
2017-12-30T01:17:59.743Z,3.40
2017-12-30T01:20:02.424Z,3.40
2017-12-30T01:22:05.116Z,3.40
2017-12-30T01:24:07.820Z,3.40
2017-12-30T01:26:10.479Z,3.40
2017-12-30T01:28:13.147Z,3.20
2017-12-30T01:30:15.814Z,3.40
2017-12-30T01:32:18.480Z,3.40
2017-12-30T01:34:21.133Z,3.50
2017-12-30T01:36:24.565Z,3.40
2017-12-30T01:38:27.213Z,3.50
2017-12-30T01:40:30.622Z,3.30
2017-12-30T01:42:33.325Z,3.30
2017-12-30T01:44:35.982Z,3.40
2017-12-30T01:46:38.657Z,3.40
2017-12-30T01:48:53.252Z,3.30
2017-12-30T01:50:55.902Z,3.30
2017-12-30T01:52:58.618Z,3.30
2017-12-30T01:55:01.277Z,3.40
2017-12-30T01:57:03.934Z,3.30
2017-12-30T01:59:06.568Z,3.30
2017-12-30T02:01:10.017Z,3.20
2017-12-30T02:03:12.672Z,3.20
2017-12-30T02:05:15.318Z,3.10
2017-12-30T02:07:18.754Z,3.00
2017-12-30T02:09:21.392Z,2.90
2017-12-30T02:11:24.845Z,3.10
2017-12-30T02:13:27.526Z,3.10
2017-12-30T02:15:30.192Z,3.10
2017-12-30T02:17:32.845Z,3.10
2017-12-30T02:19:35.520Z,3.10
2017-12-30T02:21:38.180Z,3.00
2017-12-30T02:23:40.834Z,3.00
2017-12-30T02:25:44.253Z,3.10
2017-12-30T02:27:46.902Z,3.10
2017-12-30T02:29:50.306Z,3.10
2017-12-30T02:31:52.998Z,3.10
2017-12-30T02:33:55.641Z,3.20
2017-12-30T02:35:59.044Z,3.10
2017-12-30T02:38:02.494Z,3.20
2017-12-30T02:40:05.137Z,3.20
2017-12-30T02:42:07.777Z,3.10
2017-12-30T02:44:11.213Z,3.20
2017-12-30T02:46:13.857Z,3.20
2017-12-30T02:48:17.273Z,3.10
2017-12-30T02:50:19.936Z,3.10
2017-12-30T02:52:22.584Z,3.10
2017-12-30T02:54:25.224Z,3.00
2017-12-30T02:56:27.900Z,3.00
2017-12-30T02:58:30.541Z,2.90
2017-12-30T03:00:33.195Z,2.90
2017-12-30T03:02:36.623Z,2.90
2017-12-30T03:04:39.267Z,2.90
2017-12-30T03:06:42.693Z,2.70
2017-12-30T03:08:45.331Z,2.70
2017-12-30T03:10:47.968Z,2.80
2017-12-30T03:12:50.642Z,2.70
2017-12-30T03:14:53.306Z,2.60
2017-12-30T03:16:55.974Z,2.70
2017-12-30T03:18:58.635Z,2.70
2017-12-30T03:21:01.281Z,2.80
2017-12-30T03:23:03.969Z,2.90
2017-12-30T03:25:07.379Z,3.00
2017-12-30T03:27:10.029Z,3.00
2017-12-30T03:29:12.711Z,3.10
2017-12-30T03:31:16.125Z,3.10
2017-12-30T03:33:18.764Z,3.10
2017-12-30T03:35:21.447Z,3.10
2017-12-30T03:37:24.093Z,3.30
2017-12-30T03:39:26.727Z,3.30
2017-12-30T03:41:29.384Z,3.30
2017-12-30T03:43:32.852Z,3.30
2017-12-30T03:45:35.522Z,3.30
2017-12-30T03:47:38.180Z,3.20
2017-12-30T03:49:40.837Z,3.30
2017-12-30T03:51:43.499Z,3.40
2017-12-30T03:53:46.169Z,3.30
2017-12-30T03:55:48.816Z,3.30
2017-12-30T03:57:51.491Z,3.30
2017-12-30T03:59:54.133Z,3.30
2017-12-30T04:01:56.830Z,3.40
2017-12-30T04:03:59.495Z,3.40
2017-12-30T04:06:02.141Z,3.40
2017-12-30T04:08:04.815Z,3.40
2017-12-30T04:10:07.464Z,3.40
2017-12-30T04:12:10.888Z,3.40
2017-12-30T04:14:13.570Z,3.40
2017-12-30T04:16:16.222Z,3.40
2017-12-30T04:18:19.636Z,3.50
2017-12-30T04:20:22.300Z,3.50
2017-12-30T04:22:24.980Z,3.60
2017-12-30T04:24:27.604Z,3.50
2017-12-30T04:26:30.287Z,3.50
2017-12-30T04:28:32.927Z,3.50
2017-12-30T04:30:35.590Z,3.60
2017-12-30T04:32:38.277Z,3.60
2017-12-30T04:34:40.920Z,3.50
2017-12-30T04:36:44.366Z,3.60
2017-12-30T04:38:47.016Z,3.60
2017-12-30T04:40:49.656Z,3.70
2017-12-30T04:42:53.182Z,3.70
2017-12-30T04:44:55.861Z,3.70
2017-12-30T04:46:58.500Z,3.80
2017-12-30T04:49:01.919Z,3.80
2017-12-30T04:51:04.644Z,3.80
2017-12-30T04:53:07.291Z,3.80
2017-12-30T04:55:09.966Z,3.80
2017-12-30T04:57:12.652Z,3.80
2017-12-30T04:59:15.298Z,3.80
2017-12-30T05:01:17.945Z,3.90
2017-12-30T05:03:20.599Z,3.90
2017-12-30T05:05:23.257Z,3.90
2017-12-30T05:07:25.917Z,3.90
2017-12-30T05:09:28.574Z,4.00
2017-12-30T05:11:31.209Z,4.00
2017-12-30T05:13:33.908Z,4.00
2017-12-30T05:15:36.575Z,4.00
2017-12-30T05:17:39.263Z,4.00
2017-12-30T05:19:42.690Z,3.90
2017-12-30T05:21:45.330Z,3.90
2017-12-30T05:23:48.781Z,3.90
2017-12-30T05:25:51.417Z,3.90
2017-12-30T05:27:54.109Z,3.90
2017-12-30T05:29:56.747Z,3.90
2017-12-30T05:32:00.148Z,3.80
2017-12-30T05:34:03.580Z,3.80
2017-12-30T05:36:06.219Z,3.80
2017-12-30T05:38:09.624Z,3.80
2017-12-30T05:40:12.289Z,3.80
2017-12-30T05:42:15.684Z,3.80
2017-12-30T05:44:19.103Z,3.80
2017-12-30T05:46:21.767Z,3.80
2017-12-30T05:48:24.400Z,3.80
2017-12-30T05:50:27.044Z,3.70
2017-12-30T05:52:29.721Z,3.80
2017-12-30T05:54:32.384Z,3.80
2017-12-30T05:56:35.021Z,3.80
2017-12-30T05:58:38.466Z,3.70
2017-12-30T06:00:41.147Z,3.70
2017-12-30T06:02:43.807Z,3.70
2017-12-30T06:04:46.480Z,3.70
2017-12-30T06:06:49.127Z,3.70
2017-12-30T06:08:52.527Z,3.60
2017-12-30T06:10:55.960Z,3.60
2017-12-30T06:12:58.618Z,3.60
2017-12-30T06:15:01.251Z,3.60
2017-12-30T06:17:04.688Z,3.60
2017-12-30T06:19:07.339Z,3.50
2017-12-30T06:21:09.983Z,3.50
2017-12-30T06:23:12.648Z,3.60
2017-12-30T06:25:15.283Z,3.50
2017-12-30T06:27:17.920Z,3.50
2017-12-30T06:29:20.587Z,3.50
2017-12-30T06:31:23.233Z,3.60
2017-12-30T06:33:25.885Z,3.50
2017-12-30T06:35:28.547Z,3.50
2017-12-30T06:37:31.194Z,3.60
2017-12-30T06:39:33.846Z,3.60
2017-12-30T06:41:36.533Z,3.60
2017-12-30T06:43:39.424Z,3.60
2017-12-30T06:45:42.453Z,3.60
2017-12-30T06:47:46.691Z,3.60
2017-12-30T06:49:50.398Z,3.60
2017-12-30T06:51:53.036Z,3.70
2017-12-30T06:53:55.722Z,3.70
2017-12-30T06:55:58.373Z,3.70
2017-12-30T06:58:01.775Z,3.70
2017-12-30T07:00:04.480Z,3.70
2017-12-30T07:02:07.138Z,3.70
2017-12-30T07:04:09.780Z,3.70
2017-12-30T07:06:12.512Z,3.80
2017-12-30T07:08:15.249Z,3.70
2017-12-30T07:10:18.678Z,3.80
2017-12-30T07:12:21.456Z,3.80
2017-12-30T07:14:24.099Z,3.80
2017-12-30T07:16:27.611Z,3.80
2017-12-30T07:18:30.391Z,3.80
2017-12-30T07:20:33.100Z,3.80
2017-12-30T07:22:35.763Z,3.90
2017-12-30T07:24:38.448Z,3.80
2017-12-30T07:26:41.208Z,3.90
2017-12-30T07:28:43.875Z,3.90
2017-12-30T07:30:46.586Z,3.90
2017-12-30T07:32:49.228Z,3.90
2017-12-30T07:34:54.692Z,3.90
2017-12-30T07:36:57.347Z,3.90
2017-12-30T07:38:59.986Z,4.00
2017-12-30T07:41:03.458Z,4.00
2017-12-30T07:43:06.122Z,4.00
2017-12-30T07:45:08.795Z,4.00
2017-12-30T07:47:11.467Z,4.00
2017-12-30T07:49:14.194Z,4.10
2017-12-30T07:51:17.604Z,4.10
2017-12-30T07:53:20.276Z,4.10
2017-12-30T07:55:22.917Z,4.10
2017-12-30T07:57:25.607Z,4.10
2017-12-30T07:59:28.236Z,4.20
2017-12-30T08:01:30.892Z,4.10
2017-12-30T08:03:33.584Z,4.20
2017-12-30T08:05:36.222Z,4.10
2017-12-30T08:07:39.633Z,4.10
2017-12-30T08:09:42.355Z,4.10
2017-12-30T08:11:44.988Z,4.20
2017-12-30T08:13:47.621Z,4.10
2017-12-30T08:15:50.288Z,4.10
2017-12-30T08:17:52.925Z,4.10
2017-12-30T08:19:55.575Z,4.10
2017-12-30T08:21:59.013Z,4.20
2017-12-30T08:24:01.666Z,4.20
2017-12-30T08:26:04.323Z,4.20
2017-12-30T08:28:07.029Z,4.20
2017-12-30T08:30:09.662Z,4.20
2017-12-30T08:32:13.077Z,4.20
2017-12-30T08:34:15.764Z,4.20
2017-12-30T08:36:18.400Z,4.30
2017-12-30T08:38:21.812Z,4.30
2017-12-30T08:40:24.490Z,4.30
2017-12-30T08:42:27.135Z,4.30
2017-12-30T08:44:29.767Z,4.40
2017-12-30T08:46:32.432Z,4.40
2017-12-30T08:48:35.082Z,4.40
2017-12-30T08:50:38.506Z,4.50
2017-12-30T08:52:41.186Z,4.40
2017-12-30T08:54:43.824Z,4.50
2017-12-30T08:56:47.216Z,4.60
2017-12-30T08:58:50.654Z,4.60
2017-12-30T09:00:53.536Z,4.60
2017-12-30T09:02:56.213Z,4.60
2017-12-30T09:04:58.881Z,4.70
2017-12-30T09:07:01.539Z,4.70
2017-12-30T09:09:04.285Z,4.80
2017-12-30T09:11:08.238Z,4.90
2017-12-30T09:13:10.912Z,4.90
2017-12-30T09:15:13.552Z,4.90
2017-12-30T09:17:17.009Z,5.10
2017-12-30T09:19:19.645Z,5.10
2017-12-30T09:21:22.348Z,5.20
2017-12-30T09:23:25.034Z,5.20
2017-12-30T09:25:27.757Z,5.40
2017-12-30T09:27:31.180Z,5.60
2017-12-30T09:29:33.856Z,5.60
2017-12-30T09:31:36.499Z,5.60
2017-12-30T09:33:39.903Z,5.70
2017-12-30T09:35:43.353Z,5.80
2017-12-30T09:37:45.989Z,5.70
2017-12-30T09:39:48.768Z,5.80
2017-12-30T09:41:51.501Z,5.80
2017-12-30T09:43:54.157Z,5.90
2017-12-30T09:45:56.793Z,6.00
2017-12-30T09:47:59.457Z,6.00
2017-12-30T09:50:02.954Z,6.10
2017-12-30T09:52:05.595Z,6.30
2017-12-30T09:54:08.420Z,6.60
2017-12-30T09:56:11.236Z,6.80
2017-12-30T09:58:13.939Z,7.00
2017-12-30T10:00:16.573Z,7.10
2017-12-30T10:02:19.253Z,7.20
2017-12-30T10:04:21.986Z,7.30
2017-12-30T10:06:25.712Z,7.70
2017-12-30T10:08:28.370Z,7.70
2017-12-30T10:10:31.803Z,7.90
2017-12-30T10:12:34.462Z,7.80
2017-12-30T10:14:37.160Z,8.00
2017-12-30T10:16:39.829Z,8.00
2017-12-30T10:18:42.487Z,8.10
2017-12-30T10:20:45.135Z,8.30
2017-12-30T10:22:48.586Z,8.70
2017-12-30T10:24:51.522Z,8.60
2017-12-30T10:26:54.205Z,8.80
2017-12-30T10:28:56.912Z,8.90
2017-12-30T10:30:59.596Z,9.00
2017-12-30T10:33:02.300Z,9.10
2017-12-30T10:35:05.758Z,9.10
2017-12-30T10:37:08.422Z,9.10
2017-12-30T10:39:11.073Z,9.30
2017-12-30T10:41:13.736Z,9.30
2017-12-30T10:43:17.155Z,9.50
2017-12-30T10:45:19.834Z,9.40
2017-12-30T10:47:22.534Z,9.50
2017-12-30T10:49:25.184Z,9.60
2017-12-30T10:51:27.830Z,9.60
2017-12-30T10:53:31.322Z,9.60
2017-12-30T10:55:34.769Z,9.70
2017-12-30T10:57:37.436Z,9.60
2017-12-30T10:59:40.117Z,9.70
2017-12-30T11:01:42.789Z,9.70
2017-12-30T11:03:45.437Z,9.70
2017-12-30T11:05:48.869Z,9.80
2017-12-30T11:07:51.533Z,9.80
2017-12-30T11:09:54.203Z,9.80
2017-12-30T11:11:56.914Z,9.80
2017-12-30T11:13:59.570Z,9.90
2017-12-30T11:16:02.236Z,9.90
2017-12-30T11:18:04.979Z,9.90
2017-12-30T11:20:07.614Z,9.90
2017-12-30T11:22:10.286Z,10.00
2017-12-30T11:24:12.970Z,10.00
2017-12-30T11:26:15.642Z,10.10
2017-12-30T11:28:18.303Z,10.10
2017-12-30T11:30:20.967Z,10.10
2017-12-30T11:32:23.676Z,10.10
2017-12-30T11:34:26.325Z,10.20
2017-12-30T11:36:29.003Z,10.10
2017-12-30T11:38:31.668Z,10.20
2017-12-30T11:40:34.331Z,10.30
2017-12-30T11:42:37.063Z,10.30
2017-12-30T11:44:39.729Z,10.30
2017-12-30T11:46:43.166Z,10.40
2017-12-30T11:48:46.625Z,10.50
2017-12-30T11:50:49.318Z,10.50
2017-12-30T11:52:51.984Z,10.60
2017-12-30T11:54:54.653Z,10.60
2017-12-30T11:56:57.314Z,10.60
2017-12-30T11:59:00.183Z,10.60
2017-12-30T12:01:02.874Z,10.60
2017-12-30T12:03:05.527Z,10.50
2017-12-30T12:05:08.249Z,10.60
2017-12-30T12:07:12.077Z,10.60
2017-12-30T12:09:15.507Z,10.70
2017-12-30T12:11:18.271Z,10.70
2017-12-30T12:13:20.935Z,10.70
2017-12-30T12:15:23.610Z,10.80
2017-12-30T12:17:26.305Z,10.70
2017-12-30T12:19:28.966Z,10.80
2017-12-30T12:21:31.616Z,10.80
2017-12-30T12:23:35.057Z,10.90
2017-12-30T12:25:37.704Z,10.90
2017-12-30T12:27:41.213Z,11.10
2017-12-30T12:29:43.898Z,11.10
2017-12-30T12:31:46.601Z,11.20
2017-12-30T12:33:50.031Z,11.30
2017-12-30T12:35:53.521Z,11.40
2017-12-30T12:37:56.176Z,11.30
2017-12-30T12:39:58.845Z,11.40
2017-12-30T12:42:01.525Z,11.50
2017-12-30T12:44:04.210Z,11.50
2017-12-30T12:46:06.885Z,11.60
2017-12-30T12:48:09.562Z,11.60
2017-12-30T12:50:12.208Z,11.70
2017-12-30T12:52:14.879Z,11.70
2017-12-30T12:54:17.579Z,11.80
2017-12-30T12:56:20.238Z,11.80
2017-12-30T12:58:22.912Z,11.80
2017-12-30T13:00:25.667Z,11.70
2017-12-30T13:02:28.330Z,11.70
2017-12-30T13:04:31.744Z,11.60
2017-12-30T13:06:34.424Z,11.60
2017-12-30T13:08:37.076Z,11.70
2017-12-30T13:10:40.498Z,11.80
2017-12-30T13:12:43.210Z,11.80
2017-12-30T13:14:45.874Z,11.80
2017-12-30T13:16:48.590Z,11.90
2017-12-30T13:18:52.050Z,11.80
2017-12-30T13:20:54.720Z,11.80
2017-12-30T13:22:57.414Z,11.90
2017-12-30T13:25:00.057Z,11.80
2017-12-30T13:27:02.736Z,11.90
2017-12-30T13:29:05.411Z,12.00
2017-12-30T13:31:08.062Z,12.00
2017-12-30T13:33:10.721Z,12.00
2017-12-30T13:35:13.417Z,12.10
2017-12-30T13:37:16.086Z,12.10
2017-12-30T13:39:18.756Z,12.10
2017-12-30T13:41:22.211Z,11.90
2017-12-30T13:43:24.856Z,12.00
2017-12-30T13:45:27.555Z,12.00
2017-12-30T13:47:30.210Z,11.80
2017-12-30T13:49:32.897Z,11.80
2017-12-30T13:51:35.624Z,11.90
2017-12-30T13:53:39.050Z,11.80
2017-12-30T13:55:41.849Z,11.80
2017-12-30T13:57:44.534Z,11.80
2017-12-30T13:59:47.201Z,11.80
2017-12-30T14:01:49.869Z,11.80
2017-12-30T14:03:52.545Z,11.70
2017-12-30T14:05:55.193Z,11.80
2017-12-30T14:07:57.867Z,11.70
2017-12-30T14:10:00.575Z,11.70
2017-12-30T14:12:03.329Z,11.70
2017-12-30T14:14:05.976Z,11.60
2017-12-30T14:16:09.429Z,11.70
2017-12-30T14:18:12.104Z,11.70
2017-12-30T14:20:14.756Z,11.70
2017-12-30T14:22:17.431Z,11.80
2017-12-30T14:24:20.122Z,11.80
2017-12-30T14:26:22.787Z,11.70
2017-12-30T14:28:25.494Z,11.80
2017-12-30T14:30:30.184Z,11.70
2017-12-30T14:32:32.832Z,11.70
2017-12-30T14:34:36.302Z,11.60
2017-12-30T14:36:38.992Z,11.60
2017-12-30T14:38:41.628Z,11.60
2017-12-30T14:40:44.299Z,11.60
2017-12-30T14:42:46.949Z,11.50
2017-12-30T14:44:49.595Z,11.50
2017-12-30T14:46:52.295Z,11.50
2017-12-30T14:48:54.996Z,11.60
2017-12-30T14:50:57.628Z,11.70
2017-12-30T14:53:01.084Z,11.60
2017-12-30T14:55:03.733Z,11.60
2017-12-30T14:57:06.390Z,11.70
2017-12-30T14:59:09.834Z,11.80
2017-12-30T15:01:12.521Z,11.70
2017-12-30T15:03:15.172Z,11.70
2017-12-30T15:05:17.873Z,11.60
2017-12-30T15:07:20.508Z,11.60
2017-12-30T15:09:23.194Z,11.60
2017-12-30T15:11:25.858Z,11.60
2017-12-30T15:13:28.513Z,11.70
2017-12-30T15:15:31.952Z,11.60
2017-12-30T15:17:34.643Z,11.60
2017-12-30T15:19:37.311Z,11.50
2017-12-30T15:21:40.007Z,11.50
2017-12-30T15:23:42.647Z,11.50
2017-12-30T15:25:45.311Z,11.50
2017-12-30T15:27:47.984Z,11.50
2017-12-30T15:29:50.634Z,11.50
2017-12-30T15:31:54.090Z,11.50
2017-12-30T15:33:56.797Z,11.40
2017-12-30T15:36:00.234Z,11.60
2017-12-30T15:38:02.926Z,11.60
2017-12-30T15:40:05.602Z,11.60
2017-12-30T15:42:08.286Z,11.50
2017-12-30T15:44:11.778Z,11.40
2017-12-30T15:46:14.491Z,11.40
2017-12-30T15:48:17.950Z,11.40
2017-12-30T15:50:20.603Z,11.50
2017-12-30T15:52:23.248Z,11.50
2017-12-30T15:54:26.701Z,11.40
2017-12-30T15:56:29.373Z,11.40
2017-12-30T15:58:32.028Z,11.40
2017-12-30T16:00:34.718Z,11.40
2017-12-30T16:02:37.406Z,11.50
2017-12-30T16:04:40.080Z,11.40
2017-12-30T16:06:42.770Z,11.40
2017-12-30T16:08:45.434Z,11.60
2017-12-30T16:10:48.927Z,11.60
2017-12-30T16:12:51.613Z,11.60
2017-12-30T16:14:55.276Z,11.60
2017-12-30T16:16:57.938Z,11.60
2017-12-30T16:19:00.612Z,11.60
2017-12-30T16:21:03.275Z,11.60
2017-12-30T16:23:06.734Z,11.70
2017-12-30T16:25:09.482Z,11.70
2017-12-30T16:27:12.170Z,11.80
2017-12-30T16:29:14.845Z,11.70
2017-12-30T16:31:17.536Z,11.70
2017-12-30T16:33:21.718Z,11.60
2017-12-30T16:35:24.382Z,11.60
2017-12-30T16:37:27.064Z,11.50
2017-12-30T16:39:29.725Z,11.60
2017-12-30T16:41:32.430Z,11.60
2017-12-30T16:43:36.258Z,11.60
2017-12-30T16:45:38.931Z,11.60
2017-12-30T16:47:41.598Z,11.60
2017-12-30T16:49:44.307Z,11.60
2017-12-30T16:51:46.950Z,11.50
2017-12-30T16:53:49.623Z,11.50
2017-12-30T16:55:53.078Z,11.50
2017-12-30T16:57:55.735Z,11.50
2017-12-30T16:59:59.168Z,11.60
2017-12-30T17:02:01.842Z,11.60
2017-12-30T17:04:04.523Z,11.50
2017-12-30T17:06:07.199Z,11.60
2017-12-30T17:08:09.932Z,11.70
2017-12-30T17:10:13.348Z,11.70
2017-12-30T17:12:15.996Z,11.70
2017-12-30T17:14:18.680Z,11.50
2017-12-30T17:16:22.170Z,11.50
2017-12-30T17:18:24.848Z,11.50
2017-12-30T17:20:27.643Z,11.50
2017-12-30T17:22:30.345Z,11.40
2017-12-30T17:24:33.007Z,11.40
2017-12-30T17:26:35.693Z,11.40
2017-12-30T17:28:38.358Z,11.50
2017-12-30T17:30:41.006Z,11.50
2017-12-30T17:32:43.712Z,11.50
2017-12-30T17:34:46.374Z,11.60
2017-12-30T17:36:49.815Z,11.40
2017-12-30T17:38:52.553Z,11.40
2017-12-30T17:40:55.961Z,11.40
2017-12-30T17:42:58.627Z,11.30
2017-12-30T17:45:01.397Z,11.40
2017-12-30T17:47:04.842Z,11.50
2017-12-30T17:49:07.511Z,11.40
2017-12-30T17:51:10.181Z,11.50
2017-12-30T17:53:12.863Z,11.50
2017-12-30T17:55:15.541Z,11.40
2017-12-30T17:57:18.230Z,11.40
2017-12-30T17:59:20.926Z,11.50
2017-12-30T18:01:23.614Z,11.50
2017-12-30T18:03:27.067Z,11.30
2017-12-30T18:05:29.718Z,11.30
2017-12-30T18:07:32.366Z,11.30
2017-12-30T18:09:35.822Z,11.40
2017-12-30T18:11:38.472Z,11.40
2017-12-30T18:13:41.142Z,11.50
2017-12-30T18:15:43.815Z,11.50
2017-12-30T18:17:46.548Z,11.50
2017-12-30T18:19:49.230Z,11.50
2017-12-30T18:21:52.651Z,11.50
2017-12-30T18:23:55.298Z,11.50
2017-12-30T18:25:58.768Z,11.60
2017-12-30T18:28:01.434Z,11.60
2017-12-30T18:30:04.153Z,11.60
2017-12-30T18:32:07.585Z,11.70
2017-12-30T18:34:10.253Z,11.70
2017-12-30T18:36:12.952Z,11.70
2017-12-30T18:38:16.363Z,11.80
2017-12-30T18:40:19.052Z,11.80
2017-12-30T18:42:21.803Z,11.70
2017-12-30T18:44:24.492Z,11.60
2017-12-30T18:46:27.154Z,11.60
2017-12-30T18:48:29.847Z,11.70
2017-12-30T18:50:32.496Z,11.80
2017-12-30T18:52:35.184Z,11.70
2017-12-30T18:54:37.882Z,11.70
2017-12-30T18:56:40.545Z,11.70
2017-12-30T18:58:43.198Z,11.70
2017-12-30T19:00:45.876Z,11.70
2017-12-30T19:02:48.544Z,11.70
2017-12-30T19:04:51.230Z,11.70
2017-12-30T19:06:54.009Z,11.70
2017-12-30T19:08:56.711Z,11.70
2017-12-30T19:10:59.365Z,11.70
2017-12-30T19:13:02.046Z,11.80
2017-12-30T19:15:04.744Z,11.70
2017-12-30T19:17:07.455Z,11.70
2017-12-30T19:19:10.125Z,11.80
2017-12-30T19:21:13.634Z,11.50
2017-12-30T19:23:16.459Z,11.50
2017-12-30T19:25:19.128Z,11.40
2017-12-30T19:27:21.808Z,11.50
2017-12-30T19:29:24.665Z,11.60
2017-12-30T19:31:27.309Z,11.60
2017-12-30T19:33:30.785Z,11.50
2017-12-30T19:35:33.490Z,11.50
2017-12-30T19:37:36.166Z,11.50
2017-12-30T19:39:40.457Z,11.40
2017-12-30T19:41:43.118Z,11.40
2017-12-30T19:43:45.802Z,11.40
2017-12-30T19:45:48.783Z,11.60
2017-12-30T19:47:51.459Z,11.50
2017-12-30T19:49:54.186Z,11.50
2017-12-30T19:51:56.851Z,11.50
2017-12-30T19:53:59.540Z,11.50
2017-12-30T19:56:02.318Z,11.50
2017-12-30T19:58:05.006Z,11.60
2017-12-30T20:00:07.648Z,11.70
2017-12-30T20:02:11.095Z,11.60
2017-12-30T20:04:14.734Z,11.60
2017-12-30T20:06:18.229Z,11.60
2017-12-30T20:08:20.961Z,11.60
2017-12-30T20:10:23.745Z,11.60
2017-12-30T20:12:26.408Z,11.60
2017-12-30T20:14:30.230Z,11.50
2017-12-30T20:16:32.932Z,11.50
2017-12-30T20:18:35.605Z,11.60
2017-12-30T20:20:38.279Z,11.60
2017-12-30T20:22:40.956Z,11.70
2017-12-30T20:24:43.611Z,11.60
2017-12-30T20:26:46.284Z,11.60
2017-12-30T20:28:48.987Z,11.70
2017-12-30T20:30:51.694Z,11.70
2017-12-30T20:32:54.382Z,11.60
2017-12-30T20:34:57.040Z,11.50
2017-12-30T20:36:59.692Z,11.50
2017-12-30T20:39:03.396Z,11.60
2017-12-30T20:41:06.840Z,11.60
2017-12-30T20:43:09.577Z,11.60
2017-12-30T20:45:13.074Z,11.70
2017-12-30T20:47:16.528Z,11.70
2017-12-30T20:49:19.238Z,11.70
2017-12-30T20:51:22.679Z,11.70
2017-12-30T20:53:25.334Z,11.70
2017-12-30T20:55:28.049Z,11.60
2017-12-30T20:57:30.734Z,11.60
2017-12-30T20:59:33.475Z,11.60
2017-12-30T21:01:36.300Z,11.70
2017-12-30T21:03:38.951Z,11.60
2017-12-30T21:05:41.605Z,11.70
2017-12-30T21:07:44.277Z,11.60
2017-12-30T21:09:46.928Z,11.60
2017-12-30T21:11:50.378Z,11.60
2017-12-30T21:13:53.028Z,11.60
2017-12-30T21:15:57.522Z,11.70
2017-12-30T21:18:00.237Z,11.50
2017-12-30T21:20:03.228Z,11.50
2017-12-30T21:22:06.130Z,11.50
2017-12-30T21:24:08.840Z,11.40
2017-12-30T21:26:12.358Z,11.40
2017-12-30T21:28:15.155Z,11.40
2017-12-30T21:30:17.828Z,11.40
2017-12-30T21:32:20.503Z,11.40
2017-12-30T21:34:23.176Z,11.50
2017-12-30T21:36:25.902Z,11.50
2017-12-30T21:38:28.616Z,11.50
2017-12-30T21:40:31.715Z,11.50
2017-12-30T21:42:34.422Z,11.60
2017-12-30T21:44:37.084Z,11.60
2017-12-30T21:46:39.803Z,11.60
2017-12-30T21:48:43.259Z,11.50
2017-12-30T21:50:45.911Z,11.50
2017-12-30T21:52:48.583Z,11.40
2017-12-30T21:54:51.301Z,11.50
2017-12-30T21:56:53.945Z,11.50
2017-12-30T21:58:56.604Z,11.50
2017-12-30T22:00:59.286Z,11.50
2017-12-30T22:03:01.945Z,11.50
2017-12-30T22:05:04.617Z,11.50
2017-12-30T22:07:08.031Z,11.50
2017-12-30T22:09:10.689Z,11.50
2017-12-30T22:11:13.368Z,11.50
2017-12-30T22:13:16.044Z,11.60
2017-12-30T22:15:18.739Z,11.60
2017-12-30T22:17:21.421Z,11.60
2017-12-30T22:19:24.076Z,11.60
2017-12-30T22:21:26.774Z,11.60
2017-12-30T22:23:29.434Z,11.70
2017-12-30T22:25:32.107Z,11.70
2017-12-30T22:27:34.781Z,11.80
2017-12-30T22:29:37.430Z,11.70
2017-12-30T22:31:40.854Z,11.60
2017-12-30T22:33:43.532Z,11.50
2017-12-30T22:35:46.184Z,11.60
2017-12-30T22:37:49.600Z,11.60
2017-12-30T22:39:52.283Z,11.60
2017-12-30T22:41:54.967Z,11.60
2017-12-30T22:43:57.681Z,11.50
2017-12-30T22:46:00.390Z,11.40
2017-12-30T22:48:03.830Z,11.30
2017-12-30T22:50:06.484Z,11.30
2017-12-30T22:52:09.182Z,11.30
2017-12-30T22:54:11.837Z,11.30
2017-12-30T22:56:14.489Z,11.30
2017-12-30T22:58:17.175Z,11.30
2017-12-30T23:00:19.860Z,11.30
2017-12-30T23:02:22.585Z,11.20
2017-12-30T23:04:25.280Z,11.20
2017-12-30T23:06:28.684Z,11.20
2017-12-30T23:08:32.092Z,11.20
2017-12-30T23:10:34.769Z,11.20
2017-12-30T23:12:37.478Z,11.30
2017-12-30T23:14:40.132Z,11.30
2017-12-30T23:16:42.830Z,11.20
2017-12-30T23:18:45.491Z,11.30
2017-12-30T23:20:48.158Z,11.30
2017-12-30T23:22:50.846Z,11.30
2017-12-30T23:24:53.521Z,11.30
2017-12-30T23:26:56.177Z,11.30
2017-12-30T23:28:58.847Z,11.20
2017-12-30T23:31:01.523Z,11.20
2017-12-30T23:33:04.186Z,11.20
2017-12-30T23:35:07.632Z,11.20
2017-12-30T23:37:10.281Z,11.20
2017-12-30T23:39:12.931Z,11.10
2017-12-30T23:41:16.368Z,11.20
2017-12-30T23:43:19.050Z,11.10
2017-12-30T23:45:21.718Z,11.10
2017-12-30T23:47:24.402Z,11.10
2017-12-30T23:49:27.062Z,11.10
2017-12-30T23:51:29.712Z,11.00
2017-12-30T23:53:33.162Z,10.90
2017-12-30T23:55:35.807Z,10.90
2017-12-30T23:57:38.472Z,11.00
2017-12-30T23:59:41.148Z,11.00
